createdAt,value
2023-02-28T00:00:08.646Z,0.00
2023-02-28T00:01:08.202Z,0.00
2023-02-28T00:02:07.766Z,0.00
2023-02-28T00:03:07.570Z,0.00
2023-02-28T00:04:08.691Z,0.00
2023-02-28T00:05:07.980Z,0.00
2023-02-28T00:06:08.157Z,0.00
2023-02-28T00:07:08.351Z,0.00
2023-02-28T00:08:09.187Z,0.00
2023-02-28T00:09:08.701Z,0.00
2023-02-28T00:10:09.660Z,0.00
2023-02-28T00:11:09.653Z,0.00
2023-02-28T00:12:09.701Z,0.00
2023-02-28T00:13:10.165Z,0.00
2023-02-28T00:14:11.159Z,0.00
2023-02-28T00:15:32.588Z,0.00
2023-02-28T00:16:11.598Z,0.00
2023-02-28T00:17:10.707Z,0.00
2023-02-28T00:18:10.358Z,0.00
2023-02-28T00:19:12.152Z,0.00
2023-02-28T00:20:12.151Z,0.00
2023-02-28T00:21:10.946Z,0.00
2023-02-28T00:22:12.152Z,0.00
2023-02-28T00:23:13.658Z,0.00
2023-02-28T00:24:11.402Z,0.00
2023-02-28T00:25:13.025Z,0.00
2023-02-28T00:26:12.328Z,0.00
2023-02-28T00:27:13.721Z,0.00
2023-02-28T00:28:12.724Z,0.00
2023-02-28T00:29:12.358Z,0.00
2023-02-28T00:30:13.155Z,0.00
2023-02-28T00:31:13.619Z,0.00
2023-02-28T00:32:14.199Z,0.00
2023-02-28T00:33:12.971Z,0.00
2023-02-28T00:34:13.136Z,0.00
2023-02-28T00:35:13.290Z,0.00
2023-02-28T00:36:13.469Z,0.00
2023-02-28T00:37:14.164Z,0.00
2023-02-28T00:38:13.791Z,0.00
2023-02-28T00:39:13.956Z,0.00
2023-02-28T00:40:14.124Z,0.00
2023-02-28T00:41:14.346Z,0.00
2023-02-28T00:42:14.537Z,0.00
2023-02-28T00:43:14.720Z,0.00
2023-02-28T00:44:15.699Z,0.00
2023-02-28T00:45:15.094Z,0.00
2023-02-28T00:46:15.320Z,0.00
2023-02-28T00:47:15.446Z,0.00
2023-02-28T00:48:16.658Z,0.00
2023-02-28T00:49:15.806Z,0.00
2023-02-28T00:50:16.660Z,0.00
2023-02-28T00:51:16.711Z,0.00
2023-02-28T00:52:16.420Z,0.00
2023-02-28T00:53:17.196Z,0.00
2023-02-28T00:54:17.662Z,0.00
2023-02-28T00:55:17.055Z,0.00
2023-02-28T00:56:17.247Z,0.00
2023-02-28T00:57:17.463Z,0.00
2023-02-28T00:58:18.520Z,0.00
2023-02-28T00:59:18.702Z,0.00
2023-02-28T01:00:18.221Z,0.00
2023-02-28T01:01:18.738Z,0.00
2023-02-28T01:02:18.293Z,0.00
2023-02-28T01:03:18.460Z,0.00
2023-02-28T01:04:18.671Z,0.00
2023-02-28T01:05:18.848Z,0.00
2023-02-28T01:06:19.013Z,0.00
2023-02-28T01:07:19.217Z,0.00
2023-02-28T01:08:20.671Z,0.00
2023-02-28T01:09:20.201Z,0.00
2023-02-28T01:10:19.745Z,0.00
2023-02-28T01:11:19.929Z,0.00
2023-02-28T01:12:20.070Z,0.00
2023-02-28T01:13:20.217Z,0.00
2023-02-28T01:14:20.370Z,0.00
2023-02-28T01:15:20.565Z,0.00
2023-02-28T01:16:20.736Z,0.00
2023-02-28T01:17:20.906Z,0.00
2023-02-28T01:18:21.097Z,0.00
2023-02-28T01:19:23.172Z,0.00
2023-02-28T01:20:23.167Z,0.00
2023-02-28T01:21:21.543Z,0.00
2023-02-28T01:22:22.664Z,0.00
2023-02-28T01:23:22.217Z,0.00
2023-02-28T01:24:22.006Z,0.00
2023-02-28T01:25:22.763Z,0.00
2023-02-28T01:26:22.330Z,0.00
2023-02-28T01:27:23.027Z,0.00
2023-02-28T01:28:22.699Z,0.00
2023-02-28T01:29:22.917Z,0.00
2023-02-28T01:30:24.668Z,0.00
2023-02-28T01:31:24.237Z,0.00
2023-02-28T01:32:23.525Z,0.00
2023-02-28T01:33:23.702Z,0.00
2023-02-28T01:34:23.883Z,0.00
2023-02-28T01:35:24.032Z,0.00
2023-02-28T01:36:25.167Z,0.00
2023-02-28T01:37:25.205Z,0.00
2023-02-28T01:38:24.567Z,0.00
2023-02-28T01:39:24.831Z,0.00
2023-02-28T01:40:24.992Z,0.00
2023-02-28T01:41:25.135Z,0.00
2023-02-28T01:42:26.174Z,0.00
2023-02-28T01:43:25.419Z,0.00
2023-02-28T01:44:25.558Z,0.00
2023-02-28T01:45:26.666Z,0.00
2023-02-28T01:46:26.798Z,0.00
2023-02-28T01:47:26.057Z,0.00
2023-02-28T01:48:27.219Z,0.00
2023-02-28T01:49:26.356Z,0.00
2023-02-28T01:50:27.203Z,0.00
2023-02-28T01:51:28.911Z,0.00
2023-02-28T01:52:26.917Z,0.00
2023-02-28T01:53:27.666Z,0.00
2023-02-28T01:54:27.337Z,0.00
2023-02-28T01:55:28.662Z,0.00
2023-02-28T01:56:27.657Z,0.00
2023-02-28T01:57:28.212Z,0.00
2023-02-28T01:58:27.976Z,0.00
2023-02-28T01:59:28.114Z,0.00
2023-02-28T02:00:29.164Z,0.00
2023-02-28T02:01:28.903Z,0.00
2023-02-28T02:02:28.689Z,0.00
2023-02-28T02:03:28.727Z,0.00
2023-02-28T02:04:28.874Z,0.00
2023-02-28T02:05:29.699Z,0.00
2023-02-28T02:06:29.198Z,0.00
2023-02-28T02:07:29.370Z,0.00
2023-02-28T02:08:30.032Z,0.00
2023-02-28T02:09:31.530Z,0.00
2023-02-28T02:10:29.863Z,0.00
2023-02-28T02:11:30.363Z,0.00
2023-02-28T02:12:31.167Z,0.00
2023-02-28T02:13:31.168Z,0.00
2023-02-28T02:14:30.428Z,0.00
2023-02-28T02:15:30.598Z,0.00
2023-02-28T02:16:30.778Z,0.00
2023-02-28T02:17:31.708Z,0.00
2023-02-28T02:18:31.129Z,0.00
2023-02-28T02:19:31.304Z,0.00
2023-02-28T02:20:31.485Z,0.00
2023-02-28T02:21:31.901Z,0.00
2023-02-28T02:22:31.824Z,0.00
2023-02-28T02:23:32.017Z,0.00
2023-02-28T02:24:32.202Z,0.00
2023-02-28T02:25:32.385Z,0.00
2023-02-28T02:26:32.573Z,0.00
2023-02-28T02:27:32.777Z,0.00
2023-02-28T02:28:33.677Z,0.00
2023-02-28T02:29:33.671Z,0.00
2023-02-28T02:30:34.167Z,0.00
2023-02-28T02:31:33.637Z,0.00
2023-02-28T02:32:33.711Z,0.00
2023-02-28T02:33:33.899Z,0.00
2023-02-28T02:34:34.681Z,0.00
2023-02-28T02:35:34.265Z,0.00
2023-02-28T02:36:34.338Z,0.00
2023-02-28T02:37:34.503Z,0.00
2023-02-28T02:38:34.678Z,0.00
2023-02-28T02:39:36.172Z,0.00
2023-02-28T02:40:36.032Z,0.00
2023-02-28T02:41:35.203Z,0.00
2023-02-28T02:42:35.396Z,0.00
2023-02-28T02:43:35.565Z,0.00
2023-02-28T02:44:35.759Z,0.00
2023-02-28T02:45:35.927Z,0.00
2023-02-28T02:46:37.576Z,0.00
2023-02-28T02:47:36.365Z,0.00
2023-02-28T02:48:36.531Z,0.00
2023-02-28T02:49:36.731Z,0.00
2023-02-28T02:50:37.677Z,0.00
2023-02-28T02:51:37.711Z,0.00
2023-02-28T02:52:38.164Z,0.00
2023-02-28T02:53:38.669Z,0.00
2023-02-28T02:54:37.574Z,0.00
2023-02-28T02:55:39.531Z,0.00
2023-02-28T02:56:39.668Z,0.00
2023-02-28T02:57:38.173Z,0.00
2023-02-28T02:58:38.397Z,0.00
2023-02-28T02:59:39.178Z,0.00
2023-02-28T03:00:38.785Z,0.00
2023-02-28T03:01:38.887Z,0.00
2023-02-28T03:02:39.669Z,0.00
2023-02-28T03:03:39.282Z,0.00
2023-02-28T03:04:39.343Z,0.00
2023-02-28T03:05:39.564Z,0.00
2023-02-28T03:06:39.778Z,0.00
2023-02-28T03:07:39.979Z,0.00
2023-02-28T03:08:40.196Z,0.00
2023-02-28T03:09:41.671Z,0.00
2023-02-28T03:10:41.169Z,0.00
2023-02-28T03:11:40.703Z,0.00
2023-02-28T03:12:40.884Z,0.00
2023-02-28T03:13:42.043Z,0.00
2023-02-28T03:14:41.192Z,0.00
2023-02-28T03:15:41.396Z,0.00
2023-02-28T03:16:41.594Z,0.00
2023-02-28T03:17:42.669Z,0.00
2023-02-28T03:18:41.952Z,0.00
2023-02-28T03:19:42.132Z,0.00
2023-02-28T03:20:42.332Z,0.00
2023-02-28T03:21:42.500Z,0.00
2023-02-28T03:22:42.662Z,0.00
2023-02-28T03:23:44.537Z,0.00
2023-02-28T03:24:43.035Z,0.00
2023-02-28T03:25:43.193Z,0.00
2023-02-28T03:26:44.676Z,0.00
2023-02-28T03:27:43.600Z,0.00
2023-02-28T03:28:43.771Z,0.00
2023-02-28T03:29:43.939Z,0.00
2023-02-28T03:30:44.101Z,0.00
2023-02-28T03:31:44.791Z,0.00
2023-02-28T03:32:44.733Z,0.00
2023-02-28T03:33:44.651Z,0.00
2023-02-28T03:34:44.810Z,0.00
2023-02-28T03:35:44.984Z,0.00
2023-02-28T03:36:46.286Z,0.00
2023-02-28T03:37:46.042Z,0.00
2023-02-28T03:38:45.743Z,0.00
2023-02-28T03:39:47.177Z,0.00
2023-02-28T03:40:45.922Z,0.00
2023-02-28T03:41:46.082Z,0.00
2023-02-28T03:42:46.248Z,0.00
2023-02-28T03:43:46.437Z,0.00
2023-02-28T03:44:48.044Z,0.00
2023-02-28T03:45:46.799Z,0.00
2023-02-28T03:46:46.981Z,0.00
2023-02-28T03:47:47.702Z,0.00
2023-02-28T03:48:47.376Z,0.00
2023-02-28T03:49:48.222Z,0.00
2023-02-28T03:50:47.754Z,0.00
2023-02-28T03:51:47.913Z,0.00
2023-02-28T03:52:48.062Z,0.00
2023-02-28T03:53:48.278Z,0.00
2023-02-28T03:54:49.190Z,0.00
2023-02-28T03:55:48.573Z,0.00
2023-02-28T03:56:49.682Z,0.00
2023-02-28T03:57:48.948Z,0.00
2023-02-28T03:58:50.680Z,0.00
2023-02-28T03:59:49.307Z,0.00
2023-02-28T04:00:49.478Z,0.00
2023-02-28T04:01:51.718Z,0.00
2023-02-28T04:02:50.727Z,0.00
2023-02-28T04:03:50.000Z,0.00
2023-02-28T04:04:51.723Z,0.00
2023-02-28T04:05:50.401Z,0.00
2023-02-28T04:06:51.597Z,0.00
2023-02-28T04:07:53.684Z,0.00
2023-02-28T04:08:51.028Z,0.00
2023-02-28T04:09:52.683Z,0.00
2023-02-28T04:10:52.682Z,0.00
2023-02-28T04:11:52.190Z,0.00
2023-02-28T04:12:51.614Z,0.00
2023-02-28T04:13:51.801Z,0.00
2023-02-28T04:14:52.680Z,0.00
2023-02-28T04:15:52.738Z,0.00
2023-02-28T04:16:52.405Z,0.00
2023-02-28T04:17:52.549Z,0.00
2023-02-28T04:18:53.702Z,0.00
2023-02-28T04:19:52.846Z,0.00
2023-02-28T04:20:53.733Z,0.00
2023-02-28T04:21:53.125Z,0.00
2023-02-28T04:22:54.189Z,0.00
2023-02-28T04:23:54.249Z,0.00
2023-02-28T04:24:53.742Z,0.00
2023-02-28T04:25:53.766Z,0.00
2023-02-28T04:26:53.926Z,0.00
2023-02-28T04:27:54.071Z,0.00
2023-02-28T04:28:54.238Z,0.00
2023-02-28T04:29:54.422Z,0.00
2023-02-28T04:30:56.184Z,0.00
2023-02-28T04:31:54.915Z,0.00
2023-02-28T04:32:54.910Z,0.00
2023-02-28T04:33:55.066Z,0.00
2023-02-28T04:34:55.227Z,0.00
2023-02-28T04:35:55.386Z,0.00
2023-02-28T04:37:11.813Z,0.00
2023-02-28T04:37:57.774Z,0.00
2023-02-28T04:38:55.917Z,0.00
2023-02-28T04:39:56.116Z,0.00
2023-02-28T04:40:56.282Z,0.00
2023-02-28T04:41:57.198Z,0.00
2023-02-28T04:42:57.692Z,0.00
2023-02-28T04:43:56.816Z,0.00
2023-02-28T04:44:57.027Z,0.00
2023-02-28T04:45:57.246Z,0.00
2023-02-28T04:46:57.372Z,0.00
2023-02-28T04:47:58.537Z,0.00
2023-02-28T04:48:58.193Z,0.00
2023-02-28T04:49:57.862Z,0.00
2023-02-28T04:50:58.691Z,0.00
2023-02-28T04:51:58.206Z,0.00
2023-02-28T04:52:59.061Z,0.00
2023-02-28T04:53:58.466Z,0.00
2023-02-28T04:54:59.182Z,0.00
2023-02-28T04:55:58.832Z,0.00
2023-02-28T04:56:59.020Z,0.00
2023-02-28T04:58:00.229Z,0.00
2023-02-28T04:59:00.182Z,0.00
2023-02-28T04:59:59.566Z,0.00
2023-02-28T05:00:59.733Z,0.00
2023-02-28T05:02:00.781Z,0.00
2023-02-28T05:03:00.769Z,0.00
2023-02-28T05:04:01.049Z,0.00
2023-02-28T05:05:00.512Z,0.00
2023-02-28T05:06:00.615Z,0.00
2023-02-28T05:07:00.801Z,0.00
2023-02-28T05:08:01.112Z,0.00
2023-02-28T05:09:01.151Z,0.00
2023-02-28T05:10:05.466Z,0.00
2023-02-28T05:11:02.187Z,0.00
2023-02-28T05:12:01.680Z,0.00
2023-02-28T05:13:02.686Z,0.00
2023-02-28T05:14:04.211Z,0.00
2023-02-28T05:15:02.220Z,0.00
2023-02-28T05:16:04.212Z,0.00
2023-02-28T05:17:03.190Z,0.00
2023-02-28T05:18:02.724Z,0.00
2023-02-28T05:19:02.965Z,0.00
2023-02-28T05:20:14.601Z,0.00
2023-02-28T05:21:05.233Z,0.00
2023-02-28T05:22:05.190Z,0.00
2023-02-28T05:23:05.195Z,0.00
2023-02-28T05:24:05.196Z,0.00
2023-02-28T05:25:04.709Z,0.00
2023-02-28T05:26:03.996Z,0.00
2023-02-28T05:27:04.181Z,0.00
2023-02-28T05:28:04.329Z,0.00
2023-02-28T05:29:04.475Z,0.00
2023-02-28T05:30:05.185Z,0.00
2023-02-28T05:31:04.845Z,0.00
2023-02-28T05:32:05.128Z,0.00
2023-02-28T05:33:05.241Z,0.00
2023-02-28T05:34:06.246Z,0.00
2023-02-28T05:35:05.645Z,0.00
2023-02-28T05:36:05.834Z,0.00
2023-02-28T05:37:06.013Z,0.00
2023-02-28T05:38:06.187Z,0.00
2023-02-28T05:39:07.187Z,4.00
2023-02-28T05:40:06.580Z,0.00
2023-02-28T05:41:06.783Z,4.00
2023-02-28T05:42:07.251Z,0.00
2023-02-28T05:43:07.176Z,4.00
2023-02-28T05:44:07.352Z,4.00
2023-02-28T05:45:07.526Z,4.00
2023-02-28T05:46:07.791Z,4.00
2023-02-28T05:47:08.881Z,8.00
2023-02-28T05:48:08.729Z,8.00
2023-02-28T05:49:08.788Z,4.00
2023-02-28T05:50:09.461Z,4.00
2023-02-28T05:51:08.632Z,12.00
2023-02-28T05:52:08.834Z,8.00
2023-02-28T05:53:09.022Z,16.00
2023-02-28T05:54:09.210Z,16.00
2023-02-28T05:55:09.399Z,16.00
2023-02-28T05:56:10.203Z,20.00
2023-02-28T05:57:15.674Z,24.00
2023-02-28T05:58:11.866Z,32.00
2023-02-28T05:59:10.275Z,36.00
2023-02-28T06:00:10.740Z,40.00
2023-02-28T06:01:11.239Z,48.00
2023-02-28T06:02:11.207Z,56.00
2023-02-28T06:03:10.780Z,64.00
2023-02-28T06:04:19.381Z,76.00
2023-02-28T06:05:13.090Z,84.00
2023-02-28T06:06:12.337Z,100.00
2023-02-28T06:07:11.542Z,112.00
2023-02-28T06:08:12.689Z,120.00
2023-02-28T06:09:11.962Z,132.00
2023-02-28T06:10:12.185Z,144.00
2023-02-28T06:11:12.365Z,156.00
2023-02-28T06:12:13.701Z,172.00
2023-02-28T06:13:12.751Z,184.00
2023-02-28T06:14:13.746Z,196.00
2023-02-28T06:15:13.696Z,212.00
2023-02-28T06:16:15.143Z,228.00
2023-02-28T06:17:13.566Z,252.00
2023-02-28T06:18:13.775Z,276.00
2023-02-28T06:19:13.965Z,308.00
2023-02-28T06:20:14.712Z,348.00
2023-02-28T06:21:14.383Z,404.00
2023-02-28T06:22:15.251Z,472.00
2023-02-28T06:23:15.698Z,544.00
2023-02-28T06:24:16.207Z,616.00
2023-02-28T06:25:15.083Z,692.00
2023-02-28T06:26:16.240Z,768.00
2023-02-28T06:27:15.392Z,820.00
2023-02-28T06:28:16.205Z,860.00
2023-02-28T06:29:16.646Z,896.00
2023-02-28T06:30:15.891Z,952.00
2023-02-28T06:31:16.090Z,1004.00
2023-02-28T06:32:17.388Z,1068.00
2023-02-28T06:33:16.434Z,1128.00
2023-02-28T06:34:16.756Z,1188.00
2023-02-28T06:35:16.907Z,1248.00
2023-02-28T06:36:17.751Z,1284.00
2023-02-28T06:37:17.149Z,1328.00
2023-02-28T06:38:18.202Z,1380.00
2023-02-28T06:39:17.483Z,1440.00
2023-02-28T06:40:17.753Z,1504.00
2023-02-28T06:41:18.702Z,1564.00
2023-02-28T06:42:17.972Z,1628.00
2023-02-28T06:43:18.159Z,1688.00
2023-02-28T06:44:18.761Z,1740.00
2023-02-28T06:45:18.554Z,1792.00
2023-02-28T06:46:18.771Z,1840.00
2023-02-28T06:47:18.839Z,1888.00
2023-02-28T06:48:19.022Z,1940.00
2023-02-28T06:49:19.219Z,1996.00
2023-02-28T06:50:19.400Z,2052.00
2023-02-28T06:51:19.607Z,2108.00
2023-02-28T06:52:20.746Z,2176.00
2023-02-28T06:53:20.746Z,2244.00
2023-02-28T06:54:20.164Z,2308.00
2023-02-28T06:55:20.788Z,2380.00
2023-02-28T06:56:20.498Z,2456.00
2023-02-28T06:57:20.692Z,2560.00
2023-02-28T06:58:20.975Z,2708.00
2023-02-28T06:59:22.780Z,2904.00
2023-02-28T07:00:21.187Z,3104.00
2023-02-28T07:01:21.408Z,3236.00
2023-02-28T07:02:22.259Z,3244.00
2023-02-28T07:03:23.155Z,3268.00
2023-02-28T07:04:22.738Z,3368.00
2023-02-28T07:05:22.193Z,3864.00
2023-02-28T07:06:22.353Z,8192.00
2023-02-28T07:07:22.509Z,15616.00
2023-02-28T07:08:24.212Z,24864.00
2023-02-28T07:09:23.749Z,33792.00
2023-02-28T07:10:23.054Z,39264.00
2023-02-28T07:11:23.278Z,39680.00
2023-02-28T07:12:24.212Z,38304.00
2023-02-28T07:13:23.605Z,39264.00
2023-02-28T07:14:24.709Z,40032.00
2023-02-28T07:15:24.259Z,41248.00
2023-02-28T07:16:24.210Z,43840.00
2023-02-28T07:17:24.385Z,46208.00
2023-02-28T07:18:24.558Z,47872.00
2023-02-28T07:19:24.755Z,50208.00
2023-02-28T07:20:24.915Z,52864.00
2023-02-28T07:21:25.122Z,53248.00
2023-02-28T07:22:27.209Z,52960.00
2023-02-28T07:23:25.459Z,53088.00
2023-02-28T07:24:25.603Z,36672.00
2023-02-28T07:25:25.775Z,11904.00
2023-02-28T07:26:26.730Z,39680.00
2023-02-28T07:27:26.118Z,27776.00
2023-02-28T07:28:26.281Z,52512.00
2023-02-28T07:29:26.433Z,57056.00
2023-02-28T07:30:27.215Z,56224.00
2023-02-28T07:31:28.262Z,57888.00
2023-02-28T07:32:27.778Z,59552.00
2023-02-28T07:33:27.711Z,59392.00
2023-02-28T07:34:27.232Z,60672.00
2023-02-28T07:35:27.412Z,42400.00
2023-02-28T07:36:29.214Z,14944.00
2023-02-28T07:37:28.720Z,18912.00
2023-02-28T07:38:27.830Z,44704.00
2023-02-28T07:39:28.751Z,54816.00
2023-02-28T07:40:28.254Z,18240.00
2023-02-28T07:41:29.626Z,39584.00
2023-02-28T07:42:29.219Z,27552.00
2023-02-28T07:43:29.214Z,22400.00
2023-02-28T07:44:30.578Z,25888.00
2023-02-28T07:45:29.766Z,11584.00
2023-02-28T07:46:30.747Z,10320.00
2023-02-28T07:47:31.227Z,8316.00
2023-02-28T07:48:29.486Z,7500.00
2023-02-28T07:49:29.657Z,7380.00
2023-02-28T07:50:29.844Z,7524.00
2023-02-28T07:51:31.045Z,7292.00
2023-02-28T07:52:30.205Z,8196.00
2023-02-28T07:53:30.381Z,6980.00
2023-02-28T07:54:30.563Z,7532.00
2023-02-28T07:55:31.277Z,5396.00
2023-02-28T07:56:31.258Z,4896.00
2023-02-28T07:57:33.670Z,4548.00
2023-02-28T07:58:32.265Z,4188.00
2023-02-28T07:59:32.408Z,3788.00
2023-02-28T08:00:33.313Z,3548.00
2023-02-28T08:01:33.846Z,3392.00
2023-02-28T08:02:33.228Z,3336.00
2023-02-28T08:03:32.149Z,3264.00
2023-02-28T08:04:32.407Z,3192.00
2023-02-28T08:05:32.560Z,3184.00
2023-02-28T08:06:32.765Z,3096.00
2023-02-28T08:07:32.946Z,3008.00
2023-02-28T08:08:33.738Z,3000.00
2023-02-28T08:09:33.300Z,3024.00
2023-02-28T08:10:33.474Z,3084.00
2023-02-28T08:11:33.664Z,3152.00
2023-02-28T08:12:33.864Z,3172.00
2023-02-28T08:13:34.117Z,3204.00
2023-02-28T08:14:35.233Z,3336.00
2023-02-28T08:15:34.517Z,3348.00
2023-02-28T08:16:34.742Z,3460.00
2023-02-28T08:17:35.769Z,3612.00
2023-02-28T08:18:35.093Z,3976.00
2023-02-28T08:19:35.275Z,4868.00
2023-02-28T08:20:35.468Z,6088.00
2023-02-28T08:21:36.240Z,28320.00
2023-02-28T08:22:35.781Z,43872.00
2023-02-28T08:23:36.000Z,41344.00
2023-02-28T08:24:36.733Z,38944.00
2023-02-28T08:25:36.421Z,38816.00
2023-02-28T08:26:36.604Z,37440.00
2023-02-28T08:27:37.731Z,33664.00
2023-02-28T08:28:37.004Z,31232.00
2023-02-28T08:29:37.193Z,30272.00
2023-02-28T08:30:37.379Z,34080.00
2023-02-28T08:31:37.564Z,33504.00
2023-02-28T08:32:37.853Z,33856.00
2023-02-28T08:33:38.772Z,34240.00
2023-02-28T08:34:38.083Z,34080.00
2023-02-28T08:35:38.375Z,34784.00
2023-02-28T08:36:38.531Z,36576.00
2023-02-28T08:37:39.595Z,38368.00
2023-02-28T08:38:39.926Z,37472.00
2023-02-28T08:39:39.915Z,37344.00
2023-02-28T08:40:39.127Z,40224.00
2023-02-28T08:41:39.737Z,13040.00
2023-02-28T08:42:39.402Z,4884.00
2023-02-28T08:43:39.578Z,4748.00
2023-02-28T08:44:40.282Z,4968.00
2023-02-28T08:45:40.024Z,5888.00
2023-02-28T08:46:40.147Z,8424.00
2023-02-28T08:47:41.237Z,29088.00
2023-02-28T08:48:42.237Z,29632.00
2023-02-28T08:49:40.751Z,63552.00
2023-02-28T08:50:43.905Z,101632.00
2023-02-28T08:51:42.106Z,65376.00
2023-02-28T08:52:42.238Z,95520.00
2023-02-28T08:53:41.388Z,56480.00
2023-02-28T08:54:41.591Z,21536.00
2023-02-28T08:55:41.775Z,11428.00
2023-02-28T08:56:41.998Z,9484.00
2023-02-28T08:57:42.236Z,7412.00
2023-02-28T08:58:42.438Z,7040.00
2023-02-28T08:59:44.234Z,6400.00
2023-02-28T09:00:42.780Z,5696.00
2023-02-28T09:01:42.987Z,5372.00
2023-02-28T09:02:43.177Z,5336.00
2023-02-28T09:03:43.349Z,5168.00
2023-02-28T09:04:43.585Z,4280.00
2023-02-28T09:05:43.777Z,4052.00
2023-02-28T09:06:44.777Z,3968.00
2023-02-28T09:07:44.070Z,3852.00
2023-02-28T09:08:44.225Z,3728.00
2023-02-28T09:09:45.410Z,3712.00
2023-02-28T09:10:44.573Z,3852.00
2023-02-28T09:11:44.742Z,4064.00
2023-02-28T09:12:45.775Z,4164.00
2023-02-28T09:13:45.735Z,4236.00
2023-02-28T09:14:46.732Z,4460.00
2023-02-28T09:15:45.512Z,4676.00
2023-02-28T09:16:45.713Z,4996.00
2023-02-28T09:17:47.200Z,4976.00
2023-02-28T09:18:47.732Z,4948.00
2023-02-28T09:19:47.231Z,5080.00
2023-02-28T09:20:46.398Z,5352.00
2023-02-28T09:21:46.812Z,5436.00
2023-02-28T09:22:47.735Z,5236.00
2023-02-28T09:23:46.888Z,4928.00
2023-02-28T09:24:47.101Z,4480.00
2023-02-28T09:25:49.252Z,3916.00
2023-02-28T09:26:56.784Z,3664.00
2023-02-28T09:27:49.673Z,3752.00
2023-02-28T09:28:48.737Z,3984.00
2023-02-28T09:29:48.343Z,4284.00
2023-02-28T09:30:48.209Z,4372.00
2023-02-28T09:31:48.859Z,4304.00
2023-02-28T09:32:50.403Z,4268.00
2023-02-28T09:33:49.716Z,4300.00
2023-02-28T09:34:48.856Z,4476.00
2023-02-28T09:35:49.048Z,4752.00
2023-02-28T09:36:49.612Z,4980.00
2023-02-28T09:37:49.369Z,5172.00
2023-02-28T09:38:49.804Z,5492.00
2023-02-28T09:39:50.728Z,5992.00
2023-02-28T09:40:49.844Z,6052.00
2023-02-28T09:41:49.994Z,6144.00
2023-02-28T09:42:50.792Z,6568.00
2023-02-28T09:43:50.310Z,6928.00
2023-02-28T09:44:50.800Z,7216.00
2023-02-28T09:45:50.713Z,10388.00
2023-02-28T09:46:51.751Z,14108.00
2023-02-28T09:47:51.131Z,6436.00
2023-02-28T09:48:52.751Z,5944.00
2023-02-28T09:49:51.413Z,6212.00
2023-02-28T09:50:51.601Z,5472.00
2023-02-28T09:51:52.744Z,5044.00
2023-02-28T09:52:52.786Z,4952.00
2023-02-28T09:53:56.685Z,4956.00
2023-02-28T09:54:54.219Z,4964.00
2023-02-28T09:55:52.335Z,4980.00
2023-02-28T09:56:52.567Z,4916.00
2023-02-28T09:57:52.764Z,4916.00
2023-02-28T09:58:55.753Z,4928.00
2023-02-28T09:59:53.106Z,4936.00
2023-02-28T10:00:53.308Z,4844.00
2023-02-28T10:01:54.861Z,4628.00
2023-02-28T10:02:53.674Z,4460.00
2023-02-28T10:03:53.849Z,4524.00
2023-02-28T10:04:54.796Z,4664.00
2023-02-28T10:05:54.215Z,4720.00
2023-02-28T10:06:54.803Z,4704.00
2023-02-28T10:07:55.295Z,4732.00
2023-02-28T10:08:54.791Z,4800.00
2023-02-28T10:09:54.965Z,4840.00
2023-02-28T10:10:55.788Z,5004.00
2023-02-28T10:11:56.987Z,5164.00
2023-02-28T10:12:55.531Z,5292.00
2023-02-28T10:13:56.247Z,5420.00
2023-02-28T10:14:56.797Z,5676.00
2023-02-28T10:15:56.156Z,5900.00
2023-02-28T10:16:56.242Z,5836.00
2023-02-28T10:18:08.423Z,5648.00
2023-02-28T10:18:58.529Z,5396.00
2023-02-28T10:19:56.754Z,5548.00
2023-02-28T10:20:57.753Z,5804.00
2023-02-28T10:21:57.141Z,6004.00
2023-02-28T10:22:57.311Z,5432.00
2023-02-28T10:23:57.537Z,5384.00
2023-02-28T10:24:58.296Z,5660.00
2023-02-28T10:25:57.856Z,5708.00
2023-02-28T10:26:59.646Z,5780.00
2023-02-28T10:27:58.324Z,5708.00
2023-02-28T10:28:59.253Z,7296.00
2023-02-28T10:29:59.297Z,5980.00
2023-02-28T10:31:00.279Z,7016.00
2023-02-28T10:32:00.268Z,6712.00
2023-02-28T10:32:59.184Z,5608.00
2023-02-28T10:34:01.293Z,5044.00
2023-02-28T10:34:59.560Z,5036.00
2023-02-28T10:35:59.772Z,5804.00
2023-02-28T10:36:59.990Z,5752.00
2023-02-28T10:38:00.143Z,6324.00
2023-02-28T10:39:01.257Z,5764.00
2023-02-28T10:40:00.885Z,7168.00
2023-02-28T10:41:00.669Z,5916.00
2023-02-28T10:42:00.838Z,5424.00
2023-02-28T10:43:01.058Z,5336.00
2023-02-28T10:44:01.237Z,5272.00
2023-02-28T10:45:01.457Z,4920.00
2023-02-28T10:46:02.147Z,6768.00
2023-02-28T10:47:01.826Z,4888.00
2023-02-28T10:48:02.011Z,4504.00
2023-02-28T10:49:03.271Z,4428.00
2023-02-28T10:50:02.423Z,8444.00
2023-02-28T10:51:02.632Z,4456.00
2023-02-28T10:52:02.851Z,8776.00
2023-02-28T10:53:05.090Z,8572.00
2023-02-28T10:54:04.300Z,7624.00
2023-02-28T10:55:03.444Z,8496.00
2023-02-28T10:56:03.664Z,8532.00
2023-02-28T10:57:03.846Z,8532.00
2023-02-28T10:58:04.048Z,8640.00
2023-02-28T10:59:04.767Z,8732.00
2023-02-28T11:00:04.433Z,8628.00
2023-02-28T11:01:04.677Z,8556.00
2023-02-28T11:02:07.418Z,8412.00
2023-02-28T11:03:05.810Z,8184.00
2023-02-28T11:04:05.320Z,8044.00
2023-02-28T11:05:05.352Z,8148.00
2023-02-28T11:06:06.324Z,8016.00
2023-02-28T11:07:05.640Z,7872.00
2023-02-28T11:08:06.815Z,7756.00
2023-02-28T11:09:06.039Z,7880.00
2023-02-28T11:10:06.262Z,7872.00
2023-02-28T11:11:07.300Z,7700.00
2023-02-28T11:12:06.826Z,7440.00
2023-02-28T11:13:07.314Z,7276.00
2023-02-28T11:14:08.761Z,7040.00
2023-02-28T11:15:07.808Z,6364.00
2023-02-28T11:16:08.798Z,5700.00
2023-02-28T11:17:09.757Z,5480.00
2023-02-28T11:18:07.901Z,5420.00
2023-02-28T11:19:08.099Z,5428.00
2023-02-28T11:20:08.294Z,5416.00
2023-02-28T11:21:08.360Z,5484.00
2023-02-28T11:22:08.564Z,5516.00
2023-02-28T11:23:08.715Z,5512.00
2023-02-28T11:24:08.854Z,5508.00
2023-02-28T11:25:09.766Z,5524.00
2023-02-28T11:26:09.152Z,5220.00
2023-02-28T11:27:09.347Z,5516.00
2023-02-28T11:28:09.526Z,5480.00
2023-02-28T11:29:09.682Z,5432.00
2023-02-28T11:30:10.764Z,5396.00
2023-02-28T11:31:10.064Z,5308.00
2023-02-28T11:32:10.446Z,5264.00
2023-02-28T11:33:10.492Z,5280.00
2023-02-28T11:34:11.261Z,5292.00
2023-02-28T11:35:11.625Z,5268.00
2023-02-28T11:36:12.817Z,5276.00
2023-02-28T11:37:11.220Z,5284.00
2023-02-28T11:38:12.430Z,5272.00
2023-02-28T11:39:11.584Z,5240.00
2023-02-28T11:40:11.749Z,5212.00
2023-02-28T11:41:12.828Z,5208.00
2023-02-28T11:42:12.800Z,5236.00
2023-02-28T11:43:13.628Z,5236.00
2023-02-28T11:44:12.419Z,5252.00
2023-02-28T11:45:12.576Z,5292.00
2023-02-28T11:46:12.781Z,5308.00
2023-02-28T11:47:12.939Z,5328.00
2023-02-28T11:48:14.762Z,5344.00
2023-02-28T11:49:14.264Z,5388.00
2023-02-28T11:50:13.406Z,5408.00
2023-02-28T11:51:13.587Z,5388.00
2023-02-28T11:52:13.728Z,5260.00
2023-02-28T11:53:14.803Z,5224.00
2023-02-28T11:54:14.323Z,5188.00
2023-02-28T11:55:14.221Z,5208.00
2023-02-28T11:56:14.409Z,5216.00
2023-02-28T11:57:15.339Z,5232.00
2023-02-28T11:58:14.723Z,5204.00
2023-02-28T11:59:16.273Z,5184.00
2023-02-28T12:00:15.048Z,5164.00
2023-02-28T12:01:15.831Z,5152.00
2023-02-28T12:02:16.165Z,5128.00
2023-02-28T12:03:15.512Z,5116.00
2023-02-28T12:04:15.683Z,5120.00
2023-02-28T12:05:15.854Z,5108.00
2023-02-28T12:06:16.334Z,5124.00
2023-02-28T12:07:18.274Z,5096.00
2023-02-28T12:08:17.282Z,5096.00
2023-02-28T12:09:17.784Z,5088.00
2023-02-28T12:10:17.278Z,5088.00
2023-02-28T12:11:16.831Z,5072.00
2023-02-28T12:12:16.984Z,5068.00
2023-02-28T12:13:17.819Z,5064.00
2023-02-28T12:14:17.347Z,5076.00
2023-02-28T12:15:17.547Z,5056.00
2023-02-28T12:16:17.773Z,5044.00
2023-02-28T12:17:18.836Z,5032.00
2023-02-28T12:18:18.133Z,5020.00
2023-02-28T12:19:20.282Z,5016.00
2023-02-28T12:20:18.543Z,5024.00
2023-02-28T12:21:18.718Z,5008.00
2023-02-28T12:22:20.777Z,5016.00
2023-02-28T12:23:19.785Z,5016.00
2023-02-28T12:24:19.214Z,5008.00
2023-02-28T12:25:19.382Z,5004.00
2023-02-28T12:26:20.281Z,4992.00
2023-02-28T12:27:19.704Z,4972.00
2023-02-28T12:28:19.863Z,4980.00
2023-02-28T12:29:20.067Z,4968.00
2023-02-28T12:30:20.233Z,4976.00
2023-02-28T12:31:21.292Z,4956.00
2023-02-28T12:32:20.981Z,4956.00
2023-02-28T12:33:22.148Z,4948.00
2023-02-28T12:34:21.827Z,4928.00
2023-02-28T12:35:21.079Z,4924.00
2023-02-28T12:36:21.265Z,4908.00
2023-02-28T12:37:22.281Z,4900.00
2023-02-28T12:38:21.700Z,4868.00
2023-02-28T12:39:23.972Z,4876.00